sensor_id;sensor_type;location;lat;lon;timestamp;temperature;humidity
17364;DHT22;8799;43.594;13.526;2023-04-03T00:00:50;18.80;99.90
17364;DHT22;8799;43.594;13.526;2023-04-03T00:03:17;18.80;99.90
17364;DHT22;8799;43.594;13.526;2023-04-03T00:05:46;18.80;99.90
17364;DHT22;8799;43.594;13.526;2023-04-03T00:08:15;18.80;99.90
17364;DHT22;8799;43.594;13.526;2023-04-03T00:10:43;18.80;99.90
17364;DHT22;8799;43.594;13.526;2023-04-03T00:13:11;18.80;99.90
17364;DHT22;8799;43.594;13.526;2023-04-03T00:15:40;18.80;99.90
17364;DHT22;8799;43.594;13.526;2023-04-03T00:18:08;18.80;99.90
17364;DHT22;8799;43.594;13.526;2023-04-03T00:20:36;18.80;99.90
17364;DHT22;8799;43.594;13.526;2023-04-03T00:23:04;18.80;99.90
17364;DHT22;8799;43.594;13.526;2023-04-03T00:25:34;18.80;99.90
17364;DHT22;8799;43.594;13.526;2023-04-03T00:28:02;18.80;99.90
17364;DHT22;8799;43.594;13.526;2023-04-03T00:30:29;18.80;99.90
17364;DHT22;8799;43.594;13.526;2023-04-03T00:32:57;18.80;99.90
17364;DHT22;8799;43.594;13.526;2023-04-03T00:35:27;18.80;99.90
17364;DHT22;8799;43.594;13.526;2023-04-03T00:37:55;18.70;99.90
17364;DHT22;8799;43.594;13.526;2023-04-03T00:40:25;18.80;99.90
17364;DHT22;8799;43.594;13.526;2023-04-03T00:42:59;18.80;99.90
17364;DHT22;8799;43.594;13.526;2023-04-03T00:45:33;18.70;99.90
17364;DHT22;8799;43.594;13.526;2023-04-03T00:48:04;18.70;99.90
17364;DHT22;8799;43.594;13.526;2023-04-03T00:50:35;18.70;99.90
17364;DHT22;8799;43.594;13.526;2023-04-03T00:53:06;18.80;99.90
17364;DHT22;8799;43.594;13.526;2023-04-03T00:55:35;18.80;99.90
17364;DHT22;8799;43.594;13.526;2023-04-03T00:58:06;18.70;99.90
17364;DHT22;8799;43.594;13.526;2023-04-03T01:00:36;18.80;99.90
17364;DHT22;8799;43.594;13.526;2023-04-03T01:03:05;18.70;99.90
17364;DHT22;8799;43.594;13.526;2023-04-03T01:05:32;18.70;99.90
17364;DHT22;8799;43.594;13.526;2023-04-03T01:08:00;18.70;99.90
17364;DHT22;8799;43.594;13.526;2023-04-03T01:10:29;18.70;99.90
17364;DHT22;8799;43.594;13.526;2023-04-03T01:12:56;18.70;99.90
17364;DHT22;8799;43.594;13.526;2023-04-03T01:15:27;18.70;99.90
17364;DHT22;8799;43.594;13.526;2023-04-03T01:17:57;18.70;99.90
17364;DHT22;8799;43.594;13.526;2023-04-03T01:23:39;18.70;99.90
17364;DHT22;8799;43.594;13.526;2023-04-03T01:26:08;18.70;99.90
17364;DHT22;8799;43.594;13.526;2023-04-03T01:28:37;18.70;99.90
17364;DHT22;8799;43.594;13.526;2023-04-03T01:31:14;18.70;99.90
17364;DHT22;8799;43.594;13.526;2023-04-03T01:33:44;18.70;99.90
17364;DHT22;8799;43.594;13.526;2023-04-03T01:36:15;18.70;99.90
17364;DHT22;8799;43.594;13.526;2023-04-03T01:38:43;18.70;99.90
17364;DHT22;8799;43.594;13.526;2023-04-03T01:41:11;18.70;99.90
17364;DHT22;8799;43.594;13.526;2023-04-03T01:43:39;18.70;99.90
17364;DHT22;8799;43.594;13.526;2023-04-03T01:46:07;18.70;99.90
17364;DHT22;8799;43.594;13.526;2023-04-03T01:48:35;18.70;99.90
17364;DHT22;8799;43.594;13.526;2023-04-03T01:51:05;18.70;99.90
17364;DHT22;8799;43.594;13.526;2023-04-03T01:53:32;18.70;99.90
17364;DHT22;8799;43.594;13.526;2023-04-03T01:56:00;18.70;99.90
17364;DHT22;8799;43.594;13.526;2023-04-03T01:58:28;18.70;99.90
17364;DHT22;8799;43.594;13.526;2023-04-03T02:00:56;18.70;99.90
17364;DHT22;8799;43.594;13.526;2023-04-03T02:03:24;18.70;99.90
17364;DHT22;8799;43.594;13.526;2023-04-03T02:05:53;18.70;99.90
17364;DHT22;8799;43.594;13.526;2023-04-03T02:08:22;18.70;99.90
17364;DHT22;8799;43.594;13.526;2023-04-03T02:10:50;18.70;99.90
17364;DHT22;8799;43.594;13.526;2023-04-03T02:13:19;18.70;99.90
17364;DHT22;8799;43.594;13.526;2023-04-03T02:15:47;18.70;99.90
17364;DHT22;8799;43.594;13.526;2023-04-03T02:18:15;18.70;99.90
17364;DHT22;8799;43.594;13.526;2023-04-03T02:20:43;18.70;99.90
17364;DHT22;8799;43.594;13.526;2023-04-03T02:23:11;18.70;99.90
17364;DHT22;8799;43.594;13.526;2023-04-03T02:25:40;18.70;99.90
17364;DHT22;8799;43.594;13.526;2023-04-03T02:28:08;18.70;99.90
17364;DHT22;8799;43.594;13.526;2023-04-03T02:30:36;18.70;99.90
17364;DHT22;8799;43.594;13.526;2023-04-03T02:33:04;18.70;99.90
17364;DHT22;8799;43.594;13.526;2023-04-03T02:35:33;18.70;99.90
17364;DHT22;8799;43.594;13.526;2023-04-03T02:38:01;18.70;99.90
17364;DHT22;8799;43.594;13.526;2023-04-03T02:40:29;18.70;99.90
17364;DHT22;8799;43.594;13.526;2023-04-03T02:42:58;18.70;99.90
17364;DHT22;8799;43.594;13.526;2023-04-03T02:45:26;18.70;99.90
17364;DHT22;8799;43.594;13.526;2023-04-03T02:47:54;18.70;99.90
17364;DHT22;8799;43.594;13.526;2023-04-03T02:50:22;18.70;99.90
17364;DHT22;8799;43.594;13.526;2023-04-03T02:52:50;18.70;99.90
17364;DHT22;8799;43.594;13.526;2023-04-03T02:55:18;18.70;99.90
17364;DHT22;8799;43.594;13.526;2023-04-03T02:57:46;18.70;99.90
17364;DHT22;8799;43.594;13.526;2023-04-03T03:00:17;18.70;99.90
17364;DHT22;8799;43.594;13.526;2023-04-03T03:02:45;18.70;99.90
17364;DHT22;8799;43.594;13.526;2023-04-03T03:05:13;18.70;99.90
17364;DHT22;8799;43.594;13.526;2023-04-03T03:07:40;18.70;99.90
17364;DHT22;8799;43.594;13.526;2023-04-03T03:10:09;18.70;99.90
17364;DHT22;8799;43.594;13.526;2023-04-03T03:12:37;18.70;99.90
17364;DHT22;8799;43.594;13.526;2023-04-03T03:15:07;18.70;99.90
17364;DHT22;8799;43.594;13.526;2023-04-03T03:17:36;18.70;99.90
17364;DHT22;8799;43.594;13.526;2023-04-03T03:20:06;18.60;99.90
17364;DHT22;8799;43.594;13.526;2023-04-03T03:22:35;18.70;99.90
17364;DHT22;8799;43.594;13.526;2023-04-03T03:25:04;18.70;99.90
17364;DHT22;8799;43.594;13.526;2023-04-03T03:27:32;18.70;99.90
17364;DHT22;8799;43.594;13.526;2023-04-03T03:29:59;18.70;99.90
17364;DHT22;8799;43.594;13.526;2023-04-03T03:32:28;18.60;99.90
17364;DHT22;8799;43.594;13.526;2023-04-03T03:34:58;18.60;99.90
17364;DHT22;8799;43.594;13.526;2023-04-03T03:37:27;18.70;99.90
17364;DHT22;8799;43.594;13.526;2023-04-03T03:39:55;18.70;99.90
17364;DHT22;8799;43.594;13.526;2023-04-03T03:42:23;18.60;99.90
17364;DHT22;8799;43.594;13.526;2023-04-03T03:44:55;18.60;99.90
17364;DHT22;8799;43.594;13.526;2023-04-03T03:47:23;18.70;99.90
17364;DHT22;8799;43.594;13.526;2023-04-03T03:49:51;18.60;99.90
17364;DHT22;8799;43.594;13.526;2023-04-03T03:52:21;18.60;99.90
17364;DHT22;8799;43.594;13.526;2023-04-03T03:54:50;18.60;99.90
17364;DHT22;8799;43.594;13.526;2023-04-03T03:57:18;18.60;99.90
17364;DHT22;8799;43.594;13.526;2023-04-03T03:59:46;18.60;99.90
17364;DHT22;8799;43.594;13.526;2023-04-03T04:02:14;18.60;99.90
17364;DHT22;8799;43.594;13.526;2023-04-03T04:04:42;18.60;99.90
17364;DHT22;8799;43.594;13.526;2023-04-03T04:07:10;18.60;99.90
17364;DHT22;8799;43.594;13.526;2023-04-03T04:09:40;18.60;99.90
17364;DHT22;8799;43.594;13.526;2023-04-03T04:12:08;18.60;99.90
17364;DHT22;8799;43.594;13.526;2023-04-03T04:14:36;18.60;99.90
17364;DHT22;8799;43.594;13.526;2023-04-03T04:17:03;18.60;99.90
17364;DHT22;8799;43.594;13.526;2023-04-03T04:19:31;18.60;99.90
17364;DHT22;8799;43.594;13.526;2023-04-03T04:21:59;18.60;99.90
17364;DHT22;8799;43.594;13.526;2023-04-03T04:24:27;18.60;99.90
17364;DHT22;8799;43.594;13.526;2023-04-03T04:26:57;18.60;99.90
17364;DHT22;8799;43.594;13.526;2023-04-03T04:29:24;18.60;99.90
17364;DHT22;8799;43.594;13.526;2023-04-03T04:31:52;18.60;99.90
17364;DHT22;8799;43.594;13.526;2023-04-03T04:34:20;18.60;99.90
17364;DHT22;8799;43.594;13.526;2023-04-03T04:36:49;18.60;99.90
17364;DHT22;8799;43.594;13.526;2023-04-03T04:39:17;18.60;99.90
17364;DHT22;8799;43.594;13.526;2023-04-03T04:41:45;18.60;99.90
17364;DHT22;8799;43.594;13.526;2023-04-03T04:44:15;18.60;99.90
17364;DHT22;8799;43.594;13.526;2023-04-03T04:46:42;18.60;99.90
17364;DHT22;8799;43.594;13.526;2023-04-03T04:49:10;18.60;99.90
17364;DHT22;8799;43.594;13.526;2023-04-03T04:51:39;18.60;99.90
17364;DHT22;8799;43.594;13.526;2023-04-03T04:54:06;18.60;99.90
17364;DHT22;8799;43.594;13.526;2023-04-03T04:56:34;18.60;99.90
17364;DHT22;8799;43.594;13.526;2023-04-03T04:59:02;18.60;99.90
17364;DHT22;8799;43.594;13.526;2023-04-03T05:01:32;18.60;99.90
17364;DHT22;8799;43.594;13.526;2023-04-03T05:03:59;18.50;99.90
17364;DHT22;8799;43.594;13.526;2023-04-03T05:06:28;18.50;99.90
17364;DHT22;8799;43.594;13.526;2023-04-03T05:08:58;18.50;99.90
17364;DHT22;8799;43.594;13.526;2023-04-03T05:11:25;18.50;99.90
17364;DHT22;8799;43.594;13.526;2023-04-03T05:13:54;18.50;99.90
17364;DHT22;8799;43.594;13.526;2023-04-03T05:16:22;18.50;99.90
17364;DHT22;8799;43.594;13.526;2023-04-03T05:18:52;18.50;99.90
17364;DHT22;8799;43.594;13.526;2023-04-03T05:21:20;18.50;99.90
17364;DHT22;8799;43.594;13.526;2023-04-03T05:23:49;18.50;99.90
17364;DHT22;8799;43.594;13.526;2023-04-03T05:26:17;18.50;99.90
17364;DHT22;8799;43.594;13.526;2023-04-03T05:28:46;18.50;99.90
17364;DHT22;8799;43.594;13.526;2023-04-03T05:31:14;18.50;99.90
17364;DHT22;8799;43.594;13.526;2023-04-03T05:33:42;18.50;99.90
17364;DHT22;8799;43.594;13.526;2023-04-03T05:36:11;18.50;99.90
17364;DHT22;8799;43.594;13.526;2023-04-03T05:38:39;18.50;99.90
17364;DHT22;8799;43.594;13.526;2023-04-03T05:41:07;18.50;99.90
17364;DHT22;8799;43.594;13.526;2023-04-03T05:43:35;18.50;99.90
17364;DHT22;8799;43.594;13.526;2023-04-03T05:46:08;18.50;99.90
17364;DHT22;8799;43.594;13.526;2023-04-03T05:48:36;18.50;99.90
17364;DHT22;8799;43.594;13.526;2023-04-03T05:51:05;18.50;99.90
17364;DHT22;8799;43.594;13.526;2023-04-03T05:53:35;18.50;99.90
17364;DHT22;8799;43.594;13.526;2023-04-03T05:56:04;18.50;99.90
17364;DHT22;8799;43.594;13.526;2023-04-03T05:58:32;18.50;99.90
17364;DHT22;8799;43.594;13.526;2023-04-03T06:01:00;18.50;99.90
17364;DHT22;8799;43.594;13.526;2023-04-03T06:03:28;18.50;99.90
17364;DHT22;8799;43.594;13.526;2023-04-03T06:05:56;18.50;99.90
17364;DHT22;8799;43.594;13.526;2023-04-03T06:08:24;18.40;99.90
17364;DHT22;8799;43.594;13.526;2023-04-03T06:10:54;18.40;99.90
17364;DHT22;8799;43.594;13.526;2023-04-03T06:13:22;18.40;99.90
17364;DHT22;8799;43.594;13.526;2023-04-03T06:15:49;18.40;99.90
17364;DHT22;8799;43.594;13.526;2023-04-03T06:18:17;18.40;99.90
17364;DHT22;8799;43.594;13.526;2023-04-03T06:20:46;18.40;99.90
17364;DHT22;8799;43.594;13.526;2023-04-03T06:23:13;18.40;99.90
17364;DHT22;8799;43.594;13.526;2023-04-03T06:25:42;18.40;99.90
17364;DHT22;8799;43.594;13.526;2023-04-03T06:28:12;18.40;99.90
17364;DHT22;8799;43.594;13.526;2023-04-03T06:30:40;18.40;99.90
17364;DHT22;8799;43.594;13.526;2023-04-03T06:33:08;18.40;99.90
17364;DHT22;8799;43.594;13.526;2023-04-03T06:35:36;18.40;99.90
17364;DHT22;8799;43.594;13.526;2023-04-03T06:38:04;18.40;99.90
17364;DHT22;8799;43.594;13.526;2023-04-03T06:40:35;18.30;99.90
17364;DHT22;8799;43.594;13.526;2023-04-03T06:43:03;18.30;99.90
17364;DHT22;8799;43.594;13.526;2023-04-03T06:45:32;18.30;99.90
17364;DHT22;8799;43.594;13.526;2023-04-03T06:48:01;18.30;99.90
17364;DHT22;8799;43.594;13.526;2023-04-03T06:50:28;18.30;99.90
17364;DHT22;8799;43.594;13.526;2023-04-03T06:52:56;18.30;99.90
17364;DHT22;8799;43.594;13.526;2023-04-03T06:55:25;18.30;99.90
17364;DHT22;8799;43.594;13.526;2023-04-03T06:57:52;18.30;99.90
17364;DHT22;8799;43.594;13.526;2023-04-03T07:00:20;18.30;99.90
17364;DHT22;8799;43.594;13.526;2023-04-03T07:02:50;18.30;99.90
17364;DHT22;8799;43.594;13.526;2023-04-03T07:05:18;18.30;99.90
17364;DHT22;8799;43.594;13.526;2023-04-03T07:07:46;18.30;99.90
17364;DHT22;8799;43.594;13.526;2023-04-03T07:10:15;18.30;99.90
17364;DHT22;8799;43.594;13.526;2023-04-03T07:12:44;18.30;99.90
17364;DHT22;8799;43.594;13.526;2023-04-03T07:15:12;18.30;99.90
17364;DHT22;8799;43.594;13.526;2023-04-03T07:17:40;18.30;99.90
17364;DHT22;8799;43.594;13.526;2023-04-03T07:20:11;18.30;99.90
17364;DHT22;8799;43.594;13.526;2023-04-03T07:22:38;18.30;99.90
17364;DHT22;8799;43.594;13.526;2023-04-03T07:25:07;18.20;99.90
17364;DHT22;8799;43.594;13.526;2023-04-03T07:27:35;18.30;99.90
17364;DHT22;8799;43.594;13.526;2023-04-03T07:30:03;18.30;99.90
17364;DHT22;8799;43.594;13.526;2023-04-03T07:32:31;18.30;99.90
17364;DHT22;8799;43.594;13.526;2023-04-03T07:34:59;18.20;99.90
17364;DHT22;8799;43.594;13.526;2023-04-03T07:37:29;18.20;99.90
17364;DHT22;8799;43.594;13.526;2023-04-03T07:39:56;18.20;99.90
17364;DHT22;8799;43.594;13.526;2023-04-03T07:42:25;18.20;99.90
17364;DHT22;8799;43.594;13.526;2023-04-03T07:44:54;18.20;99.90
17364;DHT22;8799;43.594;13.526;2023-04-03T07:47:22;18.20;99.90
17364;DHT22;8799;43.594;13.526;2023-04-03T07:49:49;18.20;99.90
17364;DHT22;8799;43.594;13.526;2023-04-03T07:52:17;18.20;99.90
17364;DHT22;8799;43.594;13.526;2023-04-03T07:54:47;18.20;99.90
17364;DHT22;8799;43.594;13.526;2023-04-03T07:57:14;18.20;99.90
17364;DHT22;8799;43.594;13.526;2023-04-03T07:59:42;18.20;99.90
17364;DHT22;8799;43.594;13.526;2023-04-03T08:02:11;18.20;99.90
17364;DHT22;8799;43.594;13.526;2023-04-03T08:04:39;18.30;99.90
17364;DHT22;8799;43.594;13.526;2023-04-03T08:07:06;18.30;99.90
17364;DHT22;8799;43.594;13.526;2023-04-03T08:09:34;18.30;99.90
17364;DHT22;8799;43.594;13.526;2023-04-03T08:12:04;18.30;99.90
17364;DHT22;8799;43.594;13.526;2023-04-03T08:14:31;18.30;99.90
17364;DHT22;8799;43.594;13.526;2023-04-03T08:17:00;18.30;99.90
17364;DHT22;8799;43.594;13.526;2023-04-03T08:19:30;18.30;99.90
17364;DHT22;8799;43.594;13.526;2023-04-03T08:21:58;18.30;99.90
17364;DHT22;8799;43.594;13.526;2023-04-03T08:24:28;18.20;99.90
17364;DHT22;8799;43.594;13.526;2023-04-03T08:26:56;18.30;99.90
17364;DHT22;8799;43.594;13.526;2023-04-03T08:29:25;18.30;99.90
17364;DHT22;8799;43.594;13.526;2023-04-03T08:31:53;18.30;99.90
17364;DHT22;8799;43.594;13.526;2023-04-03T08:34:25;18.30;99.90
17364;DHT22;8799;43.594;13.526;2023-04-03T08:36:52;18.30;99.90
17364;DHT22;8799;43.594;13.526;2023-04-03T08:39:21;18.30;99.90
17364;DHT22;8799;43.594;13.526;2023-04-03T08:41:48;18.30;99.90
17364;DHT22;8799;43.594;13.526;2023-04-03T08:44:22;18.30;99.90
17364;DHT22;8799;43.594;13.526;2023-04-03T08:47:15;18.30;99.90
17364;DHT22;8799;43.594;13.526;2023-04-03T08:49:48;18.30;99.90
17364;DHT22;8799;43.594;13.526;2023-04-03T08:52:22;18.30;99.90
17364;DHT22;8799;43.594;13.526;2023-04-03T08:54:54;18.30;99.90
17364;DHT22;8799;43.594;13.526;2023-04-03T08:57:28;18.30;99.90
17364;DHT22;8799;43.594;13.526;2023-04-03T08:59:58;18.30;99.90
17364;DHT22;8799;43.594;13.526;2023-04-03T09:02:32;18.30;99.90
17364;DHT22;8799;43.594;13.526;2023-04-03T09:05:05;18.30;99.90
17364;DHT22;8799;43.594;13.526;2023-04-03T09:07:36;18.30;99.90
17364;DHT22;8799;43.594;13.526;2023-04-03T09:10:08;18.30;99.90
17364;DHT22;8799;43.594;13.526;2023-04-03T09:12:39;18.30;99.90
17364;DHT22;8799;43.594;13.526;2023-04-03T09:15:16;18.30;99.90
17364;DHT22;8799;43.594;13.526;2023-04-03T09:17:57;18.30;99.90
17364;DHT22;8799;43.594;13.526;2023-04-03T09:20:33;18.30;99.90
17364;DHT22;8799;43.594;13.526;2023-04-03T09:23:12;18.30;99.90
17364;DHT22;8799;43.594;13.526;2023-04-03T09:25:43;18.30;99.90
17364;DHT22;8799;43.594;13.526;2023-04-03T09:28:11;18.30;99.90
17364;DHT22;8799;43.594;13.526;2023-04-03T09:30:40;18.30;99.90
17364;DHT22;8799;43.594;13.526;2023-04-03T09:33:10;18.30;99.90
17364;DHT22;8799;43.594;13.526;2023-04-03T09:35:40;18.30;99.90
17364;DHT22;8799;43.594;13.526;2023-04-03T09:38:18;18.30;99.80
17364;DHT22;8799;43.594;13.526;2023-04-03T09:40:48;18.30;99.80
17364;DHT22;8799;43.594;13.526;2023-04-03T09:43:25;18.30;99.80
17364;DHT22;8799;43.594;13.526;2023-04-03T09:45:54;18.30;99.70
17364;DHT22;8799;43.594;13.526;2023-04-03T09:48:25;18.30;99.70
17364;DHT22;8799;43.594;13.526;2023-04-03T09:50:56;18.30;99.70
17364;DHT22;8799;43.594;13.526;2023-04-03T09:53:31;18.30;99.60
17364;DHT22;8799;43.594;13.526;2023-04-03T09:56:00;18.30;99.60
17364;DHT22;8799;43.594;13.526;2023-04-03T09:58:30;18.30;99.60
17364;DHT22;8799;43.594;13.526;2023-04-03T10:01:00;18.30;99.50
17364;DHT22;8799;43.594;13.526;2023-04-03T10:03:31;18.30;99.50
17364;DHT22;8799;43.594;13.526;2023-04-03T10:06:02;18.30;99.40
17364;DHT22;8799;43.594;13.526;2023-04-03T10:08:32;18.30;99.40
17364;DHT22;8799;43.594;13.526;2023-04-03T10:11:09;18.30;99.40
17364;DHT22;8799;43.594;13.526;2023-04-03T10:13:50;18.30;99.30
17364;DHT22;8799;43.594;13.526;2023-04-03T10:16:21;18.30;99.30
17364;DHT22;8799;43.594;13.526;2023-04-03T10:18:58;18.30;99.20
17364;DHT22;8799;43.594;13.526;2023-04-03T10:21:35;18.30;99.20
17364;DHT22;8799;43.594;13.526;2023-04-03T10:24:10;18.30;99.00
17364;DHT22;8799;43.594;13.526;2023-04-03T10:26:45;18.30;99.00
17364;DHT22;8799;43.594;13.526;2023-04-03T10:29:26;18.30;99.00
17364;DHT22;8799;43.594;13.526;2023-04-03T10:32:01;18.30;98.90
17364;DHT22;8799;43.594;13.526;2023-04-03T10:34:37;18.30;98.80
17364;DHT22;8799;43.594;13.526;2023-04-03T10:37:13;18.40;98.70
17364;DHT22;8799;43.594;13.526;2023-04-03T10:39:52;18.40;98.70
17364;DHT22;8799;43.594;13.526;2023-04-03T10:42:27;18.30;98.60
17364;DHT22;8799;43.594;13.526;2023-04-03T10:45:10;18.40;98.50
17364;DHT22;8799;43.594;13.526;2023-04-03T10:47:51;18.40;98.40
17364;DHT22;8799;43.594;13.526;2023-04-03T10:50:35;18.40;98.30
17364;DHT22;8799;43.594;13.526;2023-04-03T10:53:12;18.40;98.20
17364;DHT22;8799;43.594;13.526;2023-04-03T10:55:46;18.40;98.10
17364;DHT22;8799;43.594;13.526;2023-04-03T10:58:20;18.40;98.00
17364;DHT22;8799;43.594;13.526;2023-04-03T11:00:52;18.40;97.90
17364;DHT22;8799;43.594;13.526;2023-04-03T11:03:28;18.40;97.90
17364;DHT22;8799;43.594;13.526;2023-04-03T11:06:02;18.40;97.80
17364;DHT22;8799;43.594;13.526;2023-04-03T11:08:36;18.40;97.70
17364;DHT22;8799;43.594;13.526;2023-04-03T11:11:09;18.40;97.60
17364;DHT22;8799;43.594;13.526;2023-04-03T11:13:43;18.40;97.50
17364;DHT22;8799;43.594;13.526;2023-04-03T11:16:16;18.40;97.50
17364;DHT22;8799;43.594;13.526;2023-04-03T11:18:49;18.40;97.50
17364;DHT22;8799;43.594;13.526;2023-04-03T11:21:20;18.40;97.40
17364;DHT22;8799;43.594;13.526;2023-04-03T11:23:48;18.40;97.30
17364;DHT22;8799;43.594;13.526;2023-04-03T11:26:21;18.40;97.30
17364;DHT22;8799;43.594;13.526;2023-04-03T11:28:53;18.40;97.10
17364;DHT22;8799;43.594;13.526;2023-04-03T11:31:33;18.40;97.00
17364;DHT22;8799;43.594;13.526;2023-04-03T11:34:19;18.40;96.90
17364;DHT22;8799;43.594;13.526;2023-04-03T11:36:53;18.40;96.80
17364;DHT22;8799;43.594;13.526;2023-04-03T11:39:25;18.40;96.70
17364;DHT22;8799;43.594;13.526;2023-04-03T11:41:53;18.40;96.60
17364;DHT22;8799;43.594;13.526;2023-04-03T11:44:34;18.40;96.50
17364;DHT22;8799;43.594;13.526;2023-04-03T11:47:03;18.40;96.50
17364;DHT22;8799;43.594;13.526;2023-04-03T11:49:54;18.40;96.20
17364;DHT22;8799;43.594;13.526;2023-04-03T11:52:59;18.40;96.20
17364;DHT22;8799;43.594;13.526;2023-04-03T11:55:55;18.40;96.00
17364;DHT22;8799;43.594;13.526;2023-04-03T11:58:24;18.40;96.00
17364;DHT22;8799;43.594;13.526;2023-04-03T12:01:16;18.40;95.80
17364;DHT22;8799;43.594;13.526;2023-04-03T12:04:10;18.40;95.80
17364;DHT22;8799;43.594;13.526;2023-04-03T12:06:59;18.40;95.70
17364;DHT22;8799;43.594;13.526;2023-04-03T12:09:34;18.40;95.70
17364;DHT22;8799;43.594;13.526;2023-04-03T12:12:24;18.40;95.60
17364;DHT22;8799;43.594;13.526;2023-04-03T12:14:53;18.40;95.50
17364;DHT22;8799;43.594;13.526;2023-04-03T12:17:25;18.40;95.30
17364;DHT22;8799;43.594;13.526;2023-04-03T12:19:54;18.40;95.30
17364;DHT22;8799;43.594;13.526;2023-04-03T12:22:22;18.40;95.30
17364;DHT22;8799;43.594;13.526;2023-04-03T12:24:56;18.40;95.20
17364;DHT22;8799;43.594;13.526;2023-04-03T12:27:28;18.40;95.10
17364;DHT22;8799;43.594;13.526;2023-04-03T12:30:04;18.40;95.10
17364;DHT22;8799;43.594;13.526;2023-04-03T12:32:58;18.40;95.00
17364;DHT22;8799;43.594;13.526;2023-04-03T12:35:34;18.40;95.00
17364;DHT22;8799;43.594;13.526;2023-04-03T12:41:19;18.40;95.00
17364;DHT22;8799;43.594;13.526;2023-04-03T12:44:02;18.40;95.10
17364;DHT22;8799;43.594;13.526;2023-04-03T12:46:37;18.40;95.10
17364;DHT22;8799;43.594;13.526;2023-04-03T12:49:20;18.40;95.00
17364;DHT22;8799;43.594;13.526;2023-04-03T12:51:50;18.40;95.00
17364;DHT22;8799;43.594;13.526;2023-04-03T12:54:23;18.40;95.00
17364;DHT22;8799;43.594;13.526;2023-04-03T12:57:10;18.40;95.00
17364;DHT22;8799;43.594;13.526;2023-04-03T12:59:38;18.40;95.00
17364;DHT22;8799;43.594;13.526;2023-04-03T13:02:25;18.40;95.00
17364;DHT22;8799;43.594;13.526;2023-04-03T13:04:56;18.40;94.90
17364;DHT22;8799;43.594;13.526;2023-04-03T13:07:28;18.40;94.90
17364;DHT22;8799;43.594;13.526;2023-04-03T13:10:04;18.40;94.80
17364;DHT22;8799;43.594;13.526;2023-04-03T13:12:48;18.40;94.80
17364;DHT22;8799;43.594;13.526;2023-04-03T13:15:18;18.40;94.70
17364;DHT22;8799;43.594;13.526;2023-04-03T13:17:46;18.40;94.70
17364;DHT22;8799;43.594;13.526;2023-04-03T13:20:19;18.40;94.50
17364;DHT22;8799;43.594;13.526;2023-04-03T13:22:53;18.40;94.60
17364;DHT22;8799;43.594;13.526;2023-04-03T13:25:23;18.40;94.60
17364;DHT22;8799;43.594;13.526;2023-04-03T13:27:53;18.30;94.50
17364;DHT22;8799;43.594;13.526;2023-04-03T13:30:25;18.40;94.40
17364;DHT22;8799;43.594;13.526;2023-04-03T13:32:54;18.40;94.40
17364;DHT22;8799;43.594;13.526;2023-04-03T13:35:31;18.30;94.40
17364;DHT22;8799;43.594;13.526;2023-04-03T13:38:01;18.30;94.40
17364;DHT22;8799;43.594;13.526;2023-04-03T13:40:29;18.30;94.30
17364;DHT22;8799;43.594;13.526;2023-04-03T13:43:16;18.40;94.20
17364;DHT22;8799;43.594;13.526;2023-04-03T13:46:04;18.30;94.10
17364;DHT22;8799;43.594;13.526;2023-04-03T13:48:40;18.30;94.10
17364;DHT22;8799;43.594;13.526;2023-04-03T13:51:19;18.30;94.00
17364;DHT22;8799;43.594;13.526;2023-04-03T13:53:51;18.30;94.00
17364;DHT22;8799;43.594;13.526;2023-04-03T13:56:30;18.30;93.90
17364;DHT22;8799;43.594;13.526;2023-04-03T13:59:19;18.30;94.00
17364;DHT22;8799;43.594;13.526;2023-04-03T14:01:52;18.30;93.90
17364;DHT22;8799;43.594;13.526;2023-04-03T14:04:22;18.30;93.90
17364;DHT22;8799;43.594;13.526;2023-04-03T14:06:50;18.30;93.80
17364;DHT22;8799;43.594;13.526;2023-04-03T14:09:20;18.30;93.70
17364;DHT22;8799;43.594;13.526;2023-04-03T14:11:50;18.30;93.40
17364;DHT22;8799;43.594;13.526;2023-04-03T14:14:23;18.30;93.20
17364;DHT22;8799;43.594;13.526;2023-04-03T14:16:54;18.30;93.10
17364;DHT22;8799;43.594;13.526;2023-04-03T14:19:29;18.30;93.00
17364;DHT22;8799;43.594;13.526;2023-04-03T14:21:59;18.30;92.80
17364;DHT22;8799;43.594;13.526;2023-04-03T14:24:27;18.30;92.80
17364;DHT22;8799;43.594;13.526;2023-04-03T14:26:55;18.30;92.70
17364;DHT22;8799;43.594;13.526;2023-04-03T14:29:25;18.30;92.70
17364;DHT22;8799;43.594;13.526;2023-04-03T14:31:53;18.30;92.60
17364;DHT22;8799;43.594;13.526;2023-04-03T14:34:21;18.30;92.50
17364;DHT22;8799;43.594;13.526;2023-04-03T14:36:49;18.30;92.30
17364;DHT22;8799;43.594;13.526;2023-04-03T14:39:18;18.20;92.30
17364;DHT22;8799;43.594;13.526;2023-04-03T14:41:46;18.30;92.40
17364;DHT22;8799;43.594;13.526;2023-04-03T14:44:14;18.20;92.20
17364;DHT22;8799;43.594;13.526;2023-04-03T14:46:45;18.20;92.20
17364;DHT22;8799;43.594;13.526;2023-04-03T14:49:14;18.20;92.20
17364;DHT22;8799;43.594;13.526;2023-04-03T14:51:42;18.20;92.20
17364;DHT22;8799;43.594;13.526;2023-04-03T14:54:13;18.20;92.10
17364;DHT22;8799;43.594;13.526;2023-04-03T14:56:41;18.20;91.90
17364;DHT22;8799;43.594;13.526;2023-04-03T14:59:12;18.20;91.90
17364;DHT22;8799;43.594;13.526;2023-04-03T15:01:40;18.20;91.90
17364;DHT22;8799;43.594;13.526;2023-04-03T15:04:13;18.20;92.00
17364;DHT22;8799;43.594;13.526;2023-04-03T15:06:41;18.20;92.30
17364;DHT22;8799;43.594;13.526;2023-04-03T15:09:18;18.20;92.30
17364;DHT22;8799;43.594;13.526;2023-04-03T15:11:47;18.20;92.30
17364;DHT22;8799;43.594;13.526;2023-04-03T15:14:14;18.10;92.40
17364;DHT22;8799;43.594;13.526;2023-04-03T15:16:42;18.10;92.40
17364;DHT22;8799;43.594;13.526;2023-04-03T15:19:11;18.10;92.50
17364;DHT22;8799;43.594;13.526;2023-04-03T15:21:40;18.10;92.60
17364;DHT22;8799;43.594;13.526;2023-04-03T15:24:09;18.10;92.10
17364;DHT22;8799;43.594;13.526;2023-04-03T15:26:37;18.10;91.10
17364;DHT22;8799;43.594;13.526;2023-04-03T15:29:05;18.10;90.70
17364;DHT22;8799;43.594;13.526;2023-04-03T15:31:33;18.10;90.00
17364;DHT22;8799;43.594;13.526;2023-04-03T15:34:01;18.00;89.10
17364;DHT22;8799;43.594;13.526;2023-04-03T15:36:31;18.00;88.90
17364;DHT22;8799;43.594;13.526;2023-04-03T15:38:59;18.00;88.20
17364;DHT22;8799;43.594;13.526;2023-04-03T15:41:27;18.00;88.20
17364;DHT22;8799;43.594;13.526;2023-04-03T15:43:56;17.90;88.00
17364;DHT22;8799;43.594;13.526;2023-04-03T15:46:25;17.90;87.40
17364;DHT22;8799;43.594;13.526;2023-04-03T15:48:53;17.90;87.10
17364;DHT22;8799;43.594;13.526;2023-04-03T15:51:21;17.90;86.10
17364;DHT22;8799;43.594;13.526;2023-04-03T15:53:51;17.90;86.00
17364;DHT22;8799;43.594;13.526;2023-04-03T15:56:20;17.90;86.70
17364;DHT22;8799;43.594;13.526;2023-04-03T15:58:47;17.90;87.20